sensor_id;sensor_type;location;lat;lon;timestamp;pressure;altitude;pressure_sealevel;temperature;humidity
7532;BME280;3807;49.030;8.714;2023-02-18T00:01:25;100254.72;;;12.75;76.60
7532;BME280;3807;49.030;8.714;2023-02-18T00:03:51;100248.22;;;12.95;75.77
7532;BME280;3807;49.030;8.714;2023-02-18T00:06:22;100246.72;;;12.87;75.98
7532;BME280;3807;49.030;8.714;2023-02-18T00:08:49;100234.72;;;12.90;75.82
7532;BME280;3807;49.030;8.714;2023-02-18T00:11:16;100242.22;;;12.96;75.66
7532;BME280;3807;49.030;8.714;2023-02-18T00:13:41;100241.63;;;12.87;76.08
7532;BME280;3807;49.030;8.714;2023-02-18T00:16:09;100244.00;;;12.94;75.60
7532;BME280;3807;49.030;8.714;2023-02-18T00:18:36;100249.28;;;12.87;75.87
7532;BME280;3807;49.030;8.714;2023-02-18T00:21:05;100244.94;;;12.91;75.89
7532;BME280;3807;49.030;8.714;2023-02-18T00:23:31;100248.69;;;12.78;76.12
7532;BME280;3807;49.030;8.714;2023-02-18T00:26:07;100240.34;;;12.73;76.41
7532;BME280;3807;49.030;8.714;2023-02-18T00:28:33;100230.87;;;12.76;76.24
7532;BME280;3807;49.030;8.714;2023-02-18T00:30:59;100238.41;;;12.79;75.99
7532;BME280;3807;49.030;8.714;2023-02-18T00:33:24;100244.41;;;12.80;76.21
7532;BME280;3807;49.030;8.714;2023-02-18T00:35:50;100240.72;;;12.88;75.80
7532;BME280;3807;49.030;8.714;2023-02-18T00:38:15;100236.13;;;13.00;75.18
7532;BME280;3807;49.030;8.714;2023-02-18T00:40:40;100233.06;;;12.88;75.56
7532;BME280;3807;49.030;8.714;2023-02-18T00:43:07;100227.31;;;13.10;74.77
7532;BME280;3807;49.030;8.714;2023-02-18T00:45:32;100234.56;;;12.96;75.54
7532;BME280;3807;49.030;8.714;2023-02-18T00:47:58;100225.16;;;12.96;75.60
7532;BME280;3807;49.030;8.714;2023-02-18T00:50:23;100235.06;;;13.08;75.16
7532;BME280;3807;49.030;8.714;2023-02-18T00:52:48;100237.63;;;13.07;75.29
7532;BME280;3807;49.030;8.714;2023-02-18T00:55:14;100222.12;;;12.83;75.93
7532;BME280;3807;49.030;8.714;2023-02-18T00:57:39;100227.94;;;12.88;75.63
7532;BME280;3807;49.030;8.714;2023-02-18T01:00:05;100235.47;;;12.93;75.65
7532;BME280;3807;49.030;8.714;2023-02-18T01:02:30;100232.47;;;12.79;76.25
7532;BME280;3807;49.030;8.714;2023-02-18T01:04:56;100237.09;;;12.97;75.50
7532;BME280;3807;49.030;8.714;2023-02-18T01:07:21;100242.38;;;12.90;76.06
7532;BME280;3807;49.030;8.714;2023-02-18T01:09:47;100243.41;;;13.14;75.06
7532;BME280;3807;49.030;8.714;2023-02-18T01:12:12;100231.75;;;13.05;75.56
7532;BME280;3807;49.030;8.714;2023-02-18T01:14:37;100233.56;;;13.01;75.46
7532;BME280;3807;49.030;8.714;2023-02-18T01:17:03;100238.69;;;13.00;75.71
7532;BME280;3807;49.030;8.714;2023-02-18T01:19:28;100242.97;;;12.99;75.75
7532;BME280;3807;49.030;8.714;2023-02-18T01:21:53;100247.69;;;13.13;75.08
7532;BME280;3807;49.030;8.714;2023-02-18T01:24:19;100246.19;;;13.06;75.47
7532;BME280;3807;49.030;8.714;2023-02-18T01:26:44;100244.69;;;12.99;75.63
7532;BME280;3807;49.030;8.714;2023-02-18T01:29:09;100240.91;;;12.82;76.37
7532;BME280;3807;49.030;8.714;2023-02-18T01:31:35;100235.16;;;13.04;75.60
7532;BME280;3807;49.030;8.714;2023-02-18T01:34:00;100225.16;;;12.96;75.85
7532;BME280;3807;49.030;8.714;2023-02-18T01:36:25;100222.44;;;13.02;75.64
7532;BME280;3807;49.030;8.714;2023-02-18T01:38:51;100221.38;;;13.09;75.41
7532;BME280;3807;49.030;8.714;2023-02-18T01:41:17;100220.19;;;12.92;75.86
7532;BME280;3807;49.030;8.714;2023-02-18T01:43:43;100224.38;;;12.94;75.69
7532;BME280;3807;49.030;8.714;2023-02-18T01:48:40;100208.62;;;12.78;76.39
7532;BME280;3807;49.030;8.714;2023-02-18T01:51:13;100222.75;;;12.92;76.00
7532;BME280;3807;49.030;8.714;2023-02-18T01:53:53;100202.78;;;12.75;76.61
7532;BME280;3807;49.030;8.714;2023-02-18T01:58:56;100214.03;;;12.99;75.66
7532;BME280;3807;49.030;8.714;2023-02-18T02:01:24;100203.22;;;12.89;76.12
7532;BME280;3807;49.030;8.714;2023-02-18T02:03:50;100206.28;;;13.00;75.77
7532;BME280;3807;49.030;8.714;2023-02-18T02:06:19;100200.44;;;12.97;76.06
7532;BME280;3807;49.030;8.714;2023-02-18T02:08:47;100202.87;;;13.01;75.59
7532;BME280;3807;49.030;8.714;2023-02-18T02:11:24;100199.69;;;12.93;76.02
7532;BME280;3807;49.030;8.714;2023-02-18T02:14:34;100204.53;;;13.02;75.67
7532;BME280;3807;49.030;8.714;2023-02-18T02:16:58;100196.25;;;12.94;76.01
7532;BME280;3807;49.030;8.714;2023-02-18T02:25:05;100188.44;;;12.99;75.91
7532;BME280;3807;49.030;8.714;2023-02-18T02:28:19;100180.72;;;13.00;75.77
7532;BME280;3807;49.030;8.714;2023-02-18T02:31:26;100200.53;;;12.94;75.91
7532;BME280;3807;49.030;8.714;2023-02-18T02:33:47;100193.56;;;12.99;75.40
7532;BME280;3807;49.030;8.714;2023-02-18T02:39:44;100193.88;;;12.88;75.85
7532;BME280;3807;49.030;8.714;2023-02-18T02:44:57;100188.09;;;12.81;76.13
7532;BME280;3807;49.030;8.714;2023-02-18T02:50:09;100194.72;;;12.88;76.13
7532;BME280;3807;49.030;8.714;2023-02-18T02:52:40;100196.34;;;12.91;76.13
7532;BME280;3807;49.030;8.714;2023-02-18T02:55:10;100194.09;;;12.80;76.70
7532;BME280;3807;49.030;8.714;2023-02-18T02:57:45;100194.88;;;12.82;76.60
7532;BME280;3807;49.030;8.714;2023-02-18T03:00:12;100190.50;;;12.87;76.79
7532;BME280;3807;49.030;8.714;2023-02-18T03:03:09;100186.13;;;12.91;76.95
7532;BME280;3807;49.030;8.714;2023-02-18T03:05:59;100178.03;;;12.75;77.71
7532;BME280;3807;49.030;8.714;2023-02-18T03:11:08;100180.81;;;12.68;78.05
7532;BME280;3807;49.030;8.714;2023-02-18T03:13:55;100159.78;;;12.58;78.73
7532;BME280;3807;49.030;8.714;2023-02-18T03:19:34;100160.69;;;12.57;79.19
7532;BME280;3807;49.030;8.714;2023-02-18T03:22:08;100160.06;;;12.49;79.73
7532;BME280;3807;49.030;8.714;2023-02-18T03:24:38;100148.50;;;12.65;78.91
7532;BME280;3807;49.030;8.714;2023-02-18T03:27:13;100147.66;;;12.66;79.11
7532;BME280;3807;49.030;8.714;2023-02-18T03:29:41;100155.44;;;12.61;79.20
7532;BME280;3807;49.030;8.714;2023-02-18T03:32:11;100155.34;;;12.64;79.13
7532;BME280;3807;49.030;8.714;2023-02-18T03:34:43;100153.72;;;12.62;79.40
7532;BME280;3807;49.030;8.714;2023-02-18T03:37:11;100149.66;;;12.84;78.03
7532;BME280;3807;49.030;8.714;2023-02-18T03:39:41;100159.84;;;12.86;77.87
7532;BME280;3807;49.030;8.714;2023-02-18T03:42:08;100161.66;;;12.82;78.36
7532;BME280;3807;49.030;8.714;2023-02-18T03:44:34;100156.84;;;12.72;78.40
7532;BME280;3807;49.030;8.714;2023-02-18T03:46:59;100155.03;;;13.05;76.83
7532;BME280;3807;49.030;8.714;2023-02-18T03:49:24;100154.84;;;13.11;76.27
7532;BME280;3807;49.030;8.714;2023-02-18T03:51:50;100143.56;;;12.88;77.10
7532;BME280;3807;49.030;8.714;2023-02-18T03:54:15;100143.34;;;12.96;76.95
7532;BME280;3807;49.030;8.714;2023-02-18T03:56:41;100143.31;;;12.98;76.59
7532;BME280;3807;49.030;8.714;2023-02-18T03:59:06;100138.63;;;13.12;76.05
7532;BME280;3807;49.030;8.714;2023-02-18T04:01:32;100136.66;;;12.92;76.71
7532;BME280;3807;49.030;8.714;2023-02-18T04:03:57;100129.63;;;12.99;76.36
7532;BME280;3807;49.030;8.714;2023-02-18T04:06:22;100130.50;;;12.70;77.05
7532;BME280;3807;49.030;8.714;2023-02-18T04:08:48;100131.53;;;12.92;76.61
7532;BME280;3807;49.030;8.714;2023-02-18T04:11:14;100138.63;;;12.82;76.80
7532;BME280;3807;49.030;8.714;2023-02-18T04:13:39;100137.31;;;12.99;76.16
7532;BME280;3807;49.030;8.714;2023-02-18T04:16:05;100131.81;;;12.83;76.62
7532;BME280;3807;49.030;8.714;2023-02-18T04:18:30;100136.31;;;13.03;75.98
7532;BME280;3807;49.030;8.714;2023-02-18T04:20:56;100135.41;;;13.05;75.90
7532;BME280;3807;49.030;8.714;2023-02-18T04:23:21;100134.91;;;13.21;75.17
7532;BME280;3807;49.030;8.714;2023-02-18T04:25:47;100139.34;;;13.16;75.17
7532;BME280;3807;49.030;8.714;2023-02-18T04:28:13;100137.12;;;13.05;75.38
7532;BME280;3807;49.030;8.714;2023-02-18T04:30:40;100136.09;;;13.10;75.56
7532;BME280;3807;49.030;8.714;2023-02-18T04:33:05;100140.47;;;13.07;75.31
7532;BME280;3807;49.030;8.714;2023-02-18T04:35:30;100139.78;;;13.02;75.68
7532;BME280;3807;49.030;8.714;2023-02-18T04:37:55;100143.72;;;13.12;75.08
7532;BME280;3807;49.030;8.714;2023-02-18T04:40:21;100140.53;;;13.05;75.06
7532;BME280;3807;49.030;8.714;2023-02-18T04:42:46;100135.16;;;13.13;75.11
7532;BME280;3807;49.030;8.714;2023-02-18T04:45:11;100134.97;;;13.19;74.83
7532;BME280;3807;49.030;8.714;2023-02-18T04:47:37;100135.16;;;13.13;74.97
7532;BME280;3807;49.030;8.714;2023-02-18T04:50:03;100133.41;;;13.15;74.79
7532;BME280;3807;49.030;8.714;2023-02-18T04:52:28;100145.47;;;13.10;74.97
7532;BME280;3807;49.030;8.714;2023-02-18T04:54:53;100143.28;;;13.27;74.25
7532;BME280;3807;49.030;8.714;2023-02-18T04:57:19;100141.34;;;13.06;75.05
7532;BME280;3807;49.030;8.714;2023-02-18T04:59:44;100142.25;;;13.05;75.28
7532;BME280;3807;49.030;8.714;2023-02-18T05:02:09;100140.12;;;13.18;74.61
7532;BME280;3807;49.030;8.714;2023-02-18T05:04:35;100146.72;;;13.26;74.30
7532;BME280;3807;49.030;8.714;2023-02-18T05:07:00;100140.03;;;13.21;74.47
7532;BME280;3807;49.030;8.714;2023-02-18T05:09:25;100134.91;;;12.94;75.20
7532;BME280;3807;49.030;8.714;2023-02-18T05:11:51;100140.34;;;13.11;75.07
7532;BME280;3807;49.030;8.714;2023-02-18T05:14:16;100131.50;;;12.94;75.42
7532;BME280;3807;49.030;8.714;2023-02-18T05:16:42;100131.72;;;13.14;74.87
7532;BME280;3807;49.030;8.714;2023-02-18T05:19:08;100123.13;;;13.17;74.80
7532;BME280;3807;49.030;8.714;2023-02-18T05:21:34;100122.37;;;13.13;74.68
7532;BME280;3807;49.030;8.714;2023-02-18T05:23:59;100121.59;;;13.11;74.78
7532;BME280;3807;49.030;8.714;2023-02-18T05:26:24;100118.59;;;12.97;75.40
7532;BME280;3807;49.030;8.714;2023-02-18T05:28:50;100117.53;;;13.04;75.26
7532;BME280;3807;49.030;8.714;2023-02-18T05:31:15;100112.94;;;13.15;74.84
7532;BME280;3807;49.030;8.714;2023-02-18T05:33:41;100110.84;;;13.00;75.32
7532;BME280;3807;49.030;8.714;2023-02-18T05:36:06;100120.16;;;13.02;75.19
7532;BME280;3807;49.030;8.714;2023-02-18T05:38:32;100103.06;;;13.04;75.08
7532;BME280;3807;49.030;8.714;2023-02-18T05:40:57;100102.63;;;13.18;74.54
7532;BME280;3807;49.030;8.714;2023-02-18T05:43:23;100115.84;;;13.04;75.15
7532;BME280;3807;49.030;8.714;2023-02-18T05:45:48;100115.50;;;13.15;74.71
7532;BME280;3807;49.030;8.714;2023-02-18T05:48:14;100103.00;;;13.06;74.94
7532;BME280;3807;49.030;8.714;2023-02-18T05:50:39;100093.44;;;12.84;75.61
7532;BME280;3807;49.030;8.714;2023-02-18T05:53:05;100091.53;;;12.63;76.52
7532;BME280;3807;49.030;8.714;2023-02-18T05:55:30;100086.62;;;12.55;76.98
7532;BME280;3807;49.030;8.714;2023-02-18T05:57:56;100080.81;;;12.78;76.22
7532;BME280;3807;49.030;8.714;2023-02-18T06:00:21;100098.22;;;12.95;75.62
7532;BME280;3807;49.030;8.714;2023-02-18T06:02:47;100105.81;;;12.97;75.29
7532;BME280;3807;49.030;8.714;2023-02-18T06:05:12;100098.97;;;12.99;75.31
7532;BME280;3807;49.030;8.714;2023-02-18T06:07:37;100100.50;;;13.04;74.97
7532;BME280;3807;49.030;8.714;2023-02-18T06:10:04;100094.53;;;13.04;75.06
7532;BME280;3807;49.030;8.714;2023-02-18T06:12:29;100097.47;;;12.92;75.42
7532;BME280;3807;49.030;8.714;2023-02-18T06:14:57;100101.41;;;13.02;75.06
7532;BME280;3807;49.030;8.714;2023-02-18T06:17:22;100102.91;;;13.09;74.69
7532;BME280;3807;49.030;8.714;2023-02-18T06:19:48;100103.59;;;13.14;74.47
7532;BME280;3807;49.030;8.714;2023-02-18T06:22:14;100102.75;;;13.14;74.46
7532;BME280;3807;49.030;8.714;2023-02-18T06:24:40;100098.22;;;12.95;75.21
7532;BME280;3807;49.030;8.714;2023-02-18T06:27:05;100099.53;;;12.80;75.83
7532;BME280;3807;49.030;8.714;2023-02-18T06:29:31;100105.22;;;12.88;75.43
7532;BME280;3807;49.030;8.714;2023-02-18T06:31:57;100097.87;;;13.06;74.82
7532;BME280;3807;49.030;8.714;2023-02-18T06:34:22;100099.31;;;12.86;75.54
7532;BME280;3807;49.030;8.714;2023-02-18T06:36:47;100098.41;;;12.89;75.46
7532;BME280;3807;49.030;8.714;2023-02-18T06:39:13;100097.00;;;13.07;74.85
7532;BME280;3807;49.030;8.714;2023-02-18T06:41:38;100093.91;;;12.97;75.00
7532;BME280;3807;49.030;8.714;2023-02-18T06:44:04;100094.97;;;12.90;75.33
7532;BME280;3807;49.030;8.714;2023-02-18T06:46:30;100094.34;;;13.10;74.57
7532;BME280;3807;49.030;8.714;2023-02-18T06:48:55;100098.47;;;13.14;74.33
7532;BME280;3807;49.030;8.714;2023-02-18T06:51:20;100095.88;;;13.16;74.40
7532;BME280;3807;49.030;8.714;2023-02-18T06:53:46;100084.34;;;13.02;74.70
7532;BME280;3807;49.030;8.714;2023-02-18T06:56:11;100090.19;;;13.07;74.60
7532;BME280;3807;49.030;8.714;2023-02-18T06:58:37;100086.81;;;13.05;74.72
7532;BME280;3807;49.030;8.714;2023-02-18T07:01:03;100083.19;;;13.13;74.37
7532;BME280;3807;49.030;8.714;2023-02-18T07:03:28;100085.03;;;12.81;74.91
7532;BME280;3807;49.030;8.714;2023-02-18T07:05:54;100079.00;;;13.10;74.31
7532;BME280;3807;49.030;8.714;2023-02-18T07:08:19;100087.91;;;12.98;74.76
7532;BME280;3807;49.030;8.714;2023-02-18T07:10:44;100073.97;;;13.07;74.48
7532;BME280;3807;49.030;8.714;2023-02-18T07:13:10;100081.81;;;13.02;74.53
7532;BME280;3807;49.030;8.714;2023-02-18T07:15:36;100081.13;;;12.97;74.49
7532;BME280;3807;49.030;8.714;2023-02-18T07:18:01;100075.88;;;13.00;74.29
7532;BME280;3807;49.030;8.714;2023-02-18T07:20:27;100068.38;;;12.96;74.56
7532;BME280;3807;49.030;8.714;2023-02-18T07:22:53;100068.53;;;12.90;74.77
7532;BME280;3807;49.030;8.714;2023-02-18T07:25:18;100052.88;;;13.00;74.46
7532;BME280;3807;49.030;8.714;2023-02-18T07:27:44;100063.44;;;12.90;74.41
7532;BME280;3807;49.030;8.714;2023-02-18T07:30:13;100062.25;;;13.00;74.58
7532;BME280;3807;49.030;8.714;2023-02-18T07:32:39;100050.37;;;12.99;74.35
7532;BME280;3807;49.030;8.714;2023-02-18T07:35:05;100052.84;;;13.02;73.93
7532;BME280;3807;49.030;8.714;2023-02-18T07:37:30;100043.50;;;13.01;74.38
7532;BME280;3807;49.030;8.714;2023-02-18T07:39:56;100046.84;;;13.03;74.08
7532;BME280;3807;49.030;8.714;2023-02-18T07:42:22;100051.91;;;13.04;73.93
7532;BME280;3807;49.030;8.714;2023-02-18T07:44:47;100051.47;;;12.92;74.17
7532;BME280;3807;49.030;8.714;2023-02-18T07:47:14;100053.19;;;12.91;74.39
7532;BME280;3807;49.030;8.714;2023-02-18T07:49:41;100048.00;;;12.93;74.14
7532;BME280;3807;49.030;8.714;2023-02-18T07:52:06;100043.03;;;12.88;73.82
7532;BME280;3807;49.030;8.714;2023-02-18T07:54:32;100048.06;;;12.91;73.93
7532;BME280;3807;49.030;8.714;2023-02-18T07:56:57;100047.13;;;12.94;73.32
7532;BME280;3807;49.030;8.714;2023-02-18T07:59:22;100050.37;;;12.99;73.75
7532;BME280;3807;49.030;8.714;2023-02-18T08:01:47;100044.72;;;12.89;73.46
7532;BME280;3807;49.030;8.714;2023-02-18T08:04:13;100041.31;;;12.88;74.14
7532;BME280;3807;49.030;8.714;2023-02-18T08:06:41;100042.31;;;13.11;73.08
7532;BME280;3807;49.030;8.714;2023-02-18T08:09:07;100048.97;;;12.90;73.80
7532;BME280;3807;49.030;8.714;2023-02-18T08:11:33;100042.62;;;13.00;73.22
7532;BME280;3807;49.030;8.714;2023-02-18T08:13:59;100046.06;;;13.01;73.21
7532;BME280;3807;49.030;8.714;2023-02-18T08:16:25;100049.88;;;13.14;72.80
7532;BME280;3807;49.030;8.714;2023-02-18T08:18:51;100037.34;;;13.06;73.24
7532;BME280;3807;49.030;8.714;2023-02-18T08:21:18;100036.94;;;12.92;73.36
7532;BME280;3807;49.030;8.714;2023-02-18T08:23:44;100042.59;;;13.02;73.22
7532;BME280;3807;49.030;8.714;2023-02-18T08:26:09;100040.09;;;13.00;72.86
7532;BME280;3807;49.030;8.714;2023-02-18T08:28:35;100045.31;;;13.25;72.55
7532;BME280;3807;49.030;8.714;2023-02-18T08:31:00;100050.59;;;13.18;72.83
7532;BME280;3807;49.030;8.714;2023-02-18T08:33:26;100054.97;;;13.16;72.71
7532;BME280;3807;49.030;8.714;2023-02-18T08:35:53;100049.28;;;13.06;73.24
7532;BME280;3807;49.030;8.714;2023-02-18T08:38:19;100037.34;;;13.06;72.59
7532;BME280;3807;49.030;8.714;2023-02-18T08:40:45;100041.09;;;13.23;72.57
7532;BME280;3807;49.030;8.714;2023-02-18T08:43:10;100047.78;;;13.27;72.43
7532;BME280;3807;49.030;8.714;2023-02-18T08:45:38;100039.31;;;13.25;72.77
7532;BME280;3807;49.030;8.714;2023-02-18T08:48:06;100038.69;;;13.18;72.98
7532;BME280;3807;49.030;8.714;2023-02-18T08:50:32;100034.84;;;13.31;72.00
7532;BME280;3807;49.030;8.714;2023-02-18T08:52:57;100041.44;;;13.39;71.80
7532;BME280;3807;49.030;8.714;2023-02-18T08:55:25;100037.53;;;13.00;73.30
7532;BME280;3807;49.030;8.714;2023-02-18T08:57:51;100028.38;;;13.20;72.87
7532;BME280;3807;49.030;8.714;2023-02-18T09:00:18;100023.22;;;13.21;72.63
7532;BME280;3807;49.030;8.714;2023-02-18T09:02:43;100014.66;;;13.22;72.99
7532;BME280;3807;49.030;8.714;2023-02-18T09:05:09;100009.13;;;13.09;72.96
7532;BME280;3807;49.030;8.714;2023-02-18T09:07:35;100023.63;;;13.09;73.04
7532;BME280;3807;49.030;8.714;2023-02-18T09:10:00;100003.53;;;13.23;73.03
7532;BME280;3807;49.030;8.714;2023-02-18T09:12:27;100015.72;;;13.43;72.12
7532;BME280;3807;49.030;8.714;2023-02-18T09:14:52;100017.38;;;13.44;72.21
7532;BME280;3807;49.030;8.714;2023-02-18T09:17:17;100022.91;;;13.32;72.41
7532;BME280;3807;49.030;8.714;2023-02-18T09:19:43;100020.37;;;13.55;72.09
7532;BME280;3807;49.030;8.714;2023-02-18T09:22:08;100021.09;;;13.36;72.69
7532;BME280;3807;49.030;8.714;2023-02-18T09:24:38;100026.31;;;13.32;72.31
7532;BME280;3807;49.030;8.714;2023-02-18T09:27:03;100032.63;;;13.47;71.95
7532;BME280;3807;49.030;8.714;2023-02-18T09:29:29;100024.88;;;13.49;72.18
7532;BME280;3807;49.030;8.714;2023-02-18T09:31:54;100034.75;;;13.34;72.48
7532;BME280;3807;49.030;8.714;2023-02-18T09:34:19;100016.09;;;13.31;72.90
7532;BME280;3807;49.030;8.714;2023-02-18T09:36:45;100025.31;;;13.37;72.76
7532;BME280;3807;49.030;8.714;2023-02-18T09:39:10;100016.44;;;13.47;72.46
7532;BME280;3807;49.030;8.714;2023-02-18T09:49:57;100027.41;;;13.50;71.95
7532;BME280;3807;49.030;8.714;2023-02-18T09:52:24;100019.28;;;13.38;72.68
7532;BME280;3807;49.030;8.714;2023-02-18T09:54:52;100020.66;;;13.48;72.05
7532;BME280;3807;49.030;8.714;2023-02-18T09:57:44;100013.91;;;13.45;72.16
7532;BME280;3807;49.030;8.714;2023-02-18T10:00:18;100009.75;;;13.43;72.02
7532;BME280;3807;49.030;8.714;2023-02-18T10:02:56;100011.84;;;13.56;72.13
7532;BME280;3807;49.030;8.714;2023-02-18T10:05:23;100018.06;;;13.49;72.42
7532;BME280;3807;49.030;8.714;2023-02-18T10:07:52;100023.22;;;13.48;71.81
7532;BME280;3807;49.030;8.714;2023-02-18T10:10:38;100010.00;;;13.60;71.58
7532;BME280;3807;49.030;8.714;2023-02-18T10:13:10;100035.19;;;13.47;72.36
7532;BME280;3807;49.030;8.714;2023-02-18T10:15:37;100034.44;;;13.44;72.47
7532;BME280;3807;49.030;8.714;2023-02-18T10:18:04;100032.50;;;13.75;72.11
7532;BME280;3807;49.030;8.714;2023-02-18T10:20:31;100040.47;;;13.68;71.95
7532;BME280;3807;49.030;8.714;2023-02-18T10:22:59;100045.56;;;13.68;71.53
7532;BME280;3807;49.030;8.714;2023-02-18T10:25:26;100031.16;;;13.65;71.74
7532;BME280;3807;49.030;8.714;2023-02-18T10:27:52;100041.47;;;13.64;72.20
7532;BME280;3807;49.030;8.714;2023-02-18T10:30:35;100052.16;;;13.75;71.69
7532;BME280;3807;49.030;8.714;2023-02-18T10:47:21;100035.00;;;13.77;71.49
7532;BME280;3807;49.030;8.714;2023-02-18T10:52:22;100026.84;;;13.91;71.57
7532;BME280;3807;49.030;8.714;2023-02-18T10:55:05;100019.09;;;13.69;71.87
7532;BME280;3807;49.030;8.714;2023-02-18T10:57:31;100018.28;;;13.92;71.51
7532;BME280;3807;49.030;8.714;2023-02-18T11:02:35;100023.25;;;13.71;72.12
7532;BME280;3807;49.030;8.714;2023-02-18T11:05:15;100028.41;;;13.70;72.27
7532;BME280;3807;49.030;8.714;2023-02-18T11:07:46;100024.50;;;13.85;71.83
7532;BME280;3807;49.030;8.714;2023-02-18T11:10:21;100015.31;;;14.02;71.34
7532;BME280;3807;49.030;8.714;2023-02-18T11:12:51;100016.19;;;14.01;71.04
7532;BME280;3807;49.030;8.714;2023-02-18T11:15:24;100008.50;;;14.01;70.95
7532;BME280;3807;49.030;8.714;2023-02-18T11:18:14;100013.16;;;13.92;71.33
7532;BME280;3807;49.030;8.714;2023-02-18T11:20:38;100008.50;;;14.01;71.43
7532;BME280;3807;49.030;8.714;2023-02-18T11:23:44;100015.97;;;13.84;72.06
7532;BME280;3807;49.030;8.714;2023-02-18T11:26:04;100016.22;;;13.78;72.09
7532;BME280;3807;49.030;8.714;2023-02-18T11:28:48;100010.25;;;14.01;71.24
7532;BME280;3807;49.030;8.714;2023-02-18T11:31:24;100012.09;;;13.97;71.82
7532;BME280;3807;49.030;8.714;2023-02-18T11:33:53;100005.09;;;14.02;71.23
7532;BME280;3807;49.030;8.714;2023-02-18T11:36:27;100004.50;;;14.18;70.84
7532;BME280;3807;49.030;8.714;2023-02-18T11:41:47;100005.19;;;14.23;70.60
7532;BME280;3807;49.030;8.714;2023-02-18T11:44:28;99998.63;;;14.16;71.58
7532;BME280;3807;49.030;8.714;2023-02-18T11:46:56;99999.88;;;14.27;70.63
7532;BME280;3807;49.030;8.714;2023-02-18T11:49:23;99996.78;;;14.19;70.69
7532;BME280;3807;49.030;8.714;2023-02-18T11:51:50;99992.16;;;14.05;71.80
7532;BME280;3807;49.030;8.714;2023-02-18T11:54:27;99989.53;;;14.07;71.29
7532;BME280;3807;49.030;8.714;2023-02-18T11:56:59;99995.66;;;14.26;70.96
7532;BME280;3807;49.030;8.714;2023-02-18T11:59:28;99983.50;;;14.08;71.56
7532;BME280;3807;49.030;8.714;2023-02-18T12:02:05;99983.81;;;14.00;72.01
7532;BME280;3807;49.030;8.714;2023-02-18T12:04:59;99982.53;;;14.12;71.55
7532;BME280;3807;49.030;8.714;2023-02-18T12:08:04;99974.72;;;14.15;71.36
7532;BME280;3807;49.030;8.714;2023-02-18T12:10:39;99983.81;;;14.22;70.48
7532;BME280;3807;49.030;8.714;2023-02-18T12:13:25;99958.88;;;13.82;72.28
7532;BME280;3807;49.030;8.714;2023-02-18T12:18:28;99964.31;;;13.96;71.93
7532;BME280;3807;49.030;8.714;2023-02-18T12:23:50;99958.31;;;13.97;71.76
7532;BME280;3807;49.030;8.714;2023-02-18T12:26:50;99957.66;;;13.92;71.61
7532;BME280;3807;49.030;8.714;2023-02-18T12:38:32;99937.16;;;13.92;71.79
7532;BME280;3807;49.030;8.714;2023-02-18T12:57:09;99911.91;;;13.83;72.20
7532;BME280;3807;49.030;8.714;2023-02-18T13:02:53;99897.31;;;13.85;72.32
7532;BME280;3807;49.030;8.714;2023-02-18T13:13:33;99890.47;;;14.07;71.81
7532;BME280;3807;49.030;8.714;2023-02-18T13:16:05;99882.59;;;13.90;71.97
7532;BME280;3807;49.030;8.714;2023-02-18T13:18:40;99878.19;;;13.94;72.12
7532;BME280;3807;49.030;8.714;2023-02-18T13:21:11;99873.69;;;14.00;71.78
7532;BME280;3807;49.030;8.714;2023-02-18T13:23:58;99870.41;;;13.97;71.40
7532;BME280;3807;49.030;8.714;2023-02-18T13:26:26;99872.59;;;13.84;72.00
7532;BME280;3807;49.030;8.714;2023-02-18T13:29:20;99867.41;;;13.64;72.85
7532;BME280;3807;49.030;8.714;2023-02-18T13:40:17;99862.97;;;13.91;71.27
7532;BME280;3807;49.030;8.714;2023-02-18T13:42:43;99864.81;;;13.87;71.21
7532;BME280;3807;49.030;8.714;2023-02-18T13:45:30;99860.06;;;14.00;71.00
7532;BME280;3807;49.030;8.714;2023-02-18T13:47:56;99855.53;;;13.85;71.03
7532;BME280;3807;49.030;8.714;2023-02-18T13:55:45;99848.06;;;14.00;69.12
7532;BME280;3807;49.030;8.714;2023-02-18T14:01:03;99825.81;;;14.02;69.56
7532;BME280;3807;49.030;8.714;2023-02-18T14:05:55;99838.94;;;13.95;68.85
7532;BME280;3807;49.030;8.714;2023-02-18T14:08:38;99835.34;;;13.99;67.58
7532;BME280;3807;49.030;8.714;2023-02-18T14:13:41;99833.91;;;14.14;66.63
7532;BME280;3807;49.030;8.714;2023-02-18T14:16:08;99835.19;;;14.24;65.97
7532;BME280;3807;49.030;8.714;2023-02-18T14:28:51;99840.87;;;14.10;65.61
7532;BME280;3807;49.030;8.714;2023-02-18T14:50:16;99824.94;;;14.24;63.50
7532;BME280;3807;49.030;8.714;2023-02-18T14:52:46;99827.53;;;14.44;65.52
7532;BME280;3807;49.030;8.714;2023-02-18T14:55:40;99832.69;;;14.22;64.38
7532;BME280;3807;49.030;8.714;2023-02-18T14:58:31;99839.22;;;14.09;63.54
7532;BME280;3807;49.030;8.714;2023-02-18T15:01:29;99842.06;;;14.23;65.36
7532;BME280;3807;49.030;8.714;2023-02-18T15:03:55;99843.09;;;14.40;63.40
7532;BME280;3807;49.030;8.714;2023-02-18T15:08:52;99844.50;;;14.26;64.46
7532;BME280;3807;49.030;8.714;2023-02-18T15:11:19;99846.03;;;14.30;63.75
7532;BME280;3807;49.030;8.714;2023-02-18T15:13:47;99846.50;;;14.40;63.82
7532;BME280;3807;49.030;8.714;2023-02-18T15:16:19;99837.66;;;14.27;64.52
7532;BME280;3807;49.030;8.714;2023-02-18T15:18:53;99849.69;;;14.45;64.23
7532;BME280;3807;49.030;8.714;2023-02-18T15:23:54;99845.66;;;14.40;63.46
7532;BME280;3807;49.030;8.714;2023-02-18T15:26:20;99831.16;;;14.18;64.47
7532;BME280;3807;49.030;8.714;2023-02-18T15:29:00;99843.84;;;14.21;64.08
7532;BME280;3807;49.030;8.714;2023-02-18T15:31:29;99842.09;;;14.44;63.05
7532;BME280;3807;49.030;8.714;2023-02-18T15:33:55;99830.53;;;14.34;65.00
7532;BME280;3807;49.030;8.714;2023-02-18T15:36:21;99818.19;;;14.01;64.79
7532;BME280;3807;49.030;8.714;2023-02-18T15:38:46;99833.41;;;14.04;63.82
7532;BME280;3807;49.030;8.714;2023-02-18T15:41:14;99833.78;;;14.17;63.80
7532;BME280;3807;49.030;8.714;2023-02-18T15:43:55;99837.12;;;14.61;64.17
7532;BME280;3807;49.030;8.714;2023-02-18T15:46:25;99841.63;;;14.34;63.64
7532;BME280;3807;49.030;8.714;2023-02-18T15:48:52;99853.59;;;14.34;63.44
7532;BME280;3807;49.030;8.714;2023-02-18T15:51:25;99842.78;;;14.47;63.86
7532;BME280;3807;49.030;8.714;2023-02-18T15:53:54;99849.97;;;14.17;63.91
7532;BME280;3807;49.030;8.714;2023-02-18T15:56:28;99860.69;;;14.27;64.51